createdAt,value
2022-08-26T00:02:16.341Z,101355.22
2022-08-26T00:04:46.702Z,101352.31
2022-08-26T00:07:13.643Z,101352.72
2022-08-26T00:09:40.795Z,101355.25
2022-08-26T00:12:09.540Z,101355.00
2022-08-26T00:14:39.647Z,101370.25
2022-08-26T00:17:06.484Z,101365.16
2022-08-26T00:19:35.868Z,101371.94
2022-08-26T00:22:02.747Z,101352.88
2022-08-26T00:24:29.656Z,101353.59
2022-08-26T00:26:58.388Z,101361.13
2022-08-26T00:29:25.504Z,101353.84
2022-08-26T00:31:52.651Z,101345.19
2022-08-26T00:34:19.772Z,101359.66
2022-08-26T00:36:49.284Z,101351.06
2022-08-26T00:39:20.052Z,101368.38
2022-08-26T00:41:47.838Z,101358.50
2022-08-26T00:44:19.291Z,101356.63
2022-08-26T00:46:53.581Z,101358.03
2022-08-26T00:49:44.868Z,101374.63
2022-08-26T00:52:19.924Z,101369.94
2022-08-26T00:54:53.340Z,101367.53
2022-08-26T00:57:21.486Z,101373.84
2022-08-26T00:59:54.345Z,101371.91
2022-08-26T01:02:21.824Z,101375.31
2022-08-26T01:04:56.178Z,101368.78
2022-08-26T01:07:26.403Z,101373.94
2022-08-26T01:09:56.965Z,101371.19
2022-08-26T01:12:27.936Z,101362.72
2022-08-26T01:14:55.798Z,101363.91
2022-08-26T01:17:22.729Z,101357.81
2022-08-26T01:19:56.657Z,101338.94
2022-08-26T01:22:30.159Z,101348.09
2022-08-26T01:25:00.938Z,101356.78
2022-08-26T01:27:32.941Z,101349.41
2022-08-26T01:30:02.169Z,101355.75
2022-08-26T01:32:33.103Z,101343.16
2022-08-26T01:35:01.063Z,101343.72
2022-08-26T01:37:34.847Z,101339.66
2022-08-26T01:40:02.611Z,101342.31
2022-08-26T01:42:36.099Z,101334.38
2022-08-26T01:45:11.302Z,101348.94
2022-08-26T01:47:43.227Z,101336.44
2022-08-26T01:50:27.548Z,101360.63
2022-08-26T01:52:59.850Z,101354.41
2022-08-26T01:55:38.669Z,101344.88
2022-08-26T01:58:11.743Z,101358.47
2022-08-26T02:00:39.626Z,101361.78
2022-08-26T02:03:17.150Z,101362.25
2022-08-26T02:05:48.774Z,101386.41
2022-08-26T02:08:24.576Z,101379.44
2022-08-26T02:10:54.812Z,101364.00
2022-08-26T02:13:25.448Z,101371.38
2022-08-26T02:15:54.450Z,101371.44
2022-08-26T02:18:22.850Z,101383.03
2022-08-26T02:20:51.714Z,101387.16
2022-08-26T02:23:18.742Z,101365.84
2022-08-26T02:26:00.416Z,101368.88
2022-08-26T02:28:33.320Z,101368.41
2022-08-26T02:31:00.136Z,101369.88
2022-08-26T02:33:30.385Z,101380.31
2022-08-26T02:35:59.483Z,101373.41
2022-08-26T02:38:26.603Z,101377.38
2022-08-26T02:40:56.691Z,101382.75
2022-08-26T02:43:31.432Z,101387.16
2022-08-26T02:46:01.833Z,101383.53
2022-08-26T02:48:30.271Z,101386.63
2022-08-26T02:51:01.770Z,101369.75
2022-08-26T02:53:31.803Z,101365.91
2022-08-26T02:55:59.865Z,101372.94
2022-08-26T02:58:27.296Z,101376.81
2022-08-26T03:00:55.155Z,101373.25
2022-08-26T03:03:23.745Z,101381.41
2022-08-26T03:05:51.554Z,101379.94
2022-08-26T03:08:18.393Z,101383.28
2022-08-26T03:10:47.514Z,101382.53
2022-08-26T03:13:17.146Z,101380.81
2022-08-26T03:15:44.139Z,101370.31
2022-08-26T03:18:13.363Z,101385.38
2022-08-26T03:20:40.294Z,101392.00
2022-08-26T03:23:08.029Z,101376.81
2022-08-26T03:25:35.883Z,101392.97
2022-08-26T03:28:09.525Z,101395.19
2022-08-26T03:30:44.923Z,101392.81
2022-08-26T03:33:19.109Z,101388.50
2022-08-26T03:35:50.516Z,101385.31
2022-08-26T03:38:20.623Z,101381.72
2022-08-26T03:40:48.875Z,101385.16
2022-08-26T03:43:17.937Z,101382.75
2022-08-26T03:45:44.915Z,101393.53
2022-08-26T03:48:13.015Z,101397.16
2022-08-26T03:50:39.930Z,101382.19
2022-08-26T03:53:07.488Z,101396.34
2022-08-26T03:55:40.859Z,101372.50
2022-08-26T03:58:08.000Z,101383.19
2022-08-26T04:00:34.809Z,101396.56
2022-08-26T04:03:03.223Z,101388.69
2022-08-26T04:05:30.472Z,101386.91
2022-08-26T04:07:57.262Z,101397.66
2022-08-26T04:10:29.200Z,101400.88
2022-08-26T04:12:58.792Z,101398.69
2022-08-26T04:15:26.954Z,101400.31
2022-08-26T04:17:54.000Z,101386.94
2022-08-26T04:20:22.714Z,101390.06
2022-08-26T04:22:50.124Z,101378.69
2022-08-26T04:25:20.650Z,101383.19
2022-08-26T04:27:48.258Z,101396.41
2022-08-26T04:30:15.906Z,101404.69
2022-08-26T04:32:43.615Z,101400.75
2022-08-26T04:35:10.508Z,101387.66
2022-08-26T04:37:37.585Z,101392.38
2022-08-26T04:40:05.450Z,101390.03
2022-08-26T04:42:33.546Z,101403.31
2022-08-26T04:45:01.211Z,101383.94
2022-08-26T04:47:32.110Z,101386.00
2022-08-26T04:50:00.025Z,101397.19
2022-08-26T04:52:26.723Z,101399.06
2022-08-26T04:54:55.714Z,101401.56
2022-08-26T04:57:23.284Z,101414.69
2022-08-26T04:59:50.079Z,101405.97
2022-08-26T05:02:16.949Z,101395.34
2022-08-26T05:04:43.790Z,101409.38
2022-08-26T05:07:10.900Z,101401.88
2022-08-26T05:09:40.880Z,101406.81
2022-08-26T05:12:11.175Z,101390.53
2022-08-26T05:14:38.552Z,101401.56
2022-08-26T05:17:05.957Z,101413.00
2022-08-26T05:19:33.598Z,101395.97
2022-08-26T05:22:00.360Z,101411.22
2022-08-26T05:24:27.416Z,101402.50
2022-08-26T05:26:54.206Z,101400.84
2022-08-26T05:29:23.680Z,101402.88
2022-08-26T05:31:52.183Z,101413.44
2022-08-26T05:34:20.974Z,101403.06
2022-08-26T05:36:48.151Z,101417.69
2022-08-26T05:39:15.133Z,101415.25
2022-08-26T05:41:43.203Z,101413.72
2022-08-26T05:44:15.000Z,101419.41
2022-08-26T05:46:44.815Z,101442.69
2022-08-26T05:49:14.485Z,101423.03
2022-08-26T05:51:45.161Z,101447.31
2022-08-26T05:54:13.097Z,101448.88
2022-08-26T05:56:40.362Z,101449.28
2022-08-26T05:59:14.326Z,101444.41
2022-08-26T06:01:43.546Z,101436.25
2022-08-26T06:04:11.762Z,101443.16
2022-08-26T06:06:41.566Z,101451.69
2022-08-26T06:09:11.075Z,101456.13
2022-08-26T06:11:38.838Z,101458.09
2022-08-26T06:14:07.977Z,101468.78
2022-08-26T06:16:38.644Z,101459.59
2022-08-26T06:19:11.132Z,101463.25
2022-08-26T06:21:41.233Z,101459.66
2022-08-26T06:24:31.086Z,101462.41
2022-08-26T06:27:03.616Z,101469.38
2022-08-26T06:29:34.711Z,101475.97
2022-08-26T06:32:03.647Z,101478.19
2022-08-26T06:34:30.988Z,101474.28
2022-08-26T06:37:01.385Z,101472.31
2022-08-26T06:39:30.958Z,101463.69
2022-08-26T06:41:59.485Z,101465.53
2022-08-26T06:44:27.669Z,101469.75
2022-08-26T06:46:55.080Z,101465.50
2022-08-26T06:49:26.807Z,101472.50
2022-08-26T06:51:58.580Z,101474.13
2022-08-26T06:54:32.249Z,101482.94
2022-08-26T06:56:59.645Z,101475.19
2022-08-26T06:59:26.964Z,101473.72
2022-08-26T07:01:54.756Z,101478.59
2022-08-26T07:04:23.388Z,101472.69
2022-08-26T07:06:53.564Z,101474.09
2022-08-26T07:09:26.582Z,101463.06
2022-08-26T07:11:56.215Z,101476.22
2022-08-26T07:14:26.309Z,101486.28
2022-08-26T07:16:53.884Z,101477.97
2022-08-26T07:19:30.167Z,101466.47
2022-08-26T07:22:04.701Z,101478.44
2022-08-26T07:24:32.515Z,101477.75
2022-08-26T07:27:05.421Z,101482.03
2022-08-26T07:29:33.272Z,101491.22
2022-08-26T07:32:01.840Z,101480.03
2022-08-26T07:34:29.357Z,101475.59
2022-08-26T07:36:57.415Z,101492.66
2022-08-26T07:39:27.032Z,101485.66
2022-08-26T07:41:54.455Z,101494.31
2022-08-26T07:44:24.679Z,101491.50
2022-08-26T07:46:53.199Z,101501.72
2022-08-26T07:49:26.973Z,101501.16
2022-08-26T07:52:29.806Z,101485.97
2022-08-26T07:54:59.817Z,101489.16
2022-08-26T07:57:28.706Z,101493.00
2022-08-26T07:59:59.550Z,101507.72
2022-08-26T08:02:28.857Z,101496.31
2022-08-26T08:04:59.825Z,101499.06
2022-08-26T08:07:44.415Z,101509.94
2022-08-26T08:10:25.074Z,101520.69
2022-08-26T08:12:53.159Z,101505.91
2022-08-26T08:15:25.003Z,101515.78
2022-08-26T08:17:57.622Z,101525.69
2022-08-26T08:20:27.359Z,101515.94
2022-08-26T08:23:01.603Z,101525.63
2022-08-26T08:25:29.436Z,101507.00
2022-08-26T08:27:56.242Z,101522.47
2022-08-26T08:30:24.477Z,101515.25
2022-08-26T08:32:51.706Z,101517.81
2022-08-26T08:35:26.286Z,101527.94
2022-08-26T08:37:58.281Z,101534.63
2022-08-26T08:40:26.536Z,101534.16
2022-08-26T08:42:59.407Z,101532.03
2022-08-26T08:45:36.607Z,101521.66
2022-08-26T08:48:18.861Z,101522.88
2022-08-26T08:50:49.002Z,101522.44
2022-08-26T08:53:23.223Z,101515.19
2022-08-26T08:56:08.849Z,101524.03
2022-08-26T08:58:42.421Z,101529.13
2022-08-26T09:01:24.647Z,101508.72
2022-08-26T09:04:17.305Z,101523.03
2022-08-26T09:06:47.580Z,101524.31
2022-08-26T09:09:29.261Z,101535.97
2022-08-26T09:11:58.916Z,101528.13
2022-08-26T09:14:25.950Z,101523.75
2022-08-26T09:17:16.573Z,101529.72
2022-08-26T09:19:52.570Z,101522.34
2022-08-26T09:22:35.126Z,101534.66
2022-08-26T09:25:04.995Z,101531.81
2022-08-26T09:27:40.115Z,101530.09
2022-08-26T09:30:08.683Z,101526.53
2022-08-26T09:32:38.899Z,101532.53
2022-08-26T09:35:24.429Z,101541.13
2022-08-26T09:40:34.524Z,101541.69
2022-08-26T09:43:08.780Z,101535.47
2022-08-26T09:45:36.965Z,101542.94
2022-08-26T09:48:03.913Z,101552.41
2022-08-26T09:50:52.102Z,101547.56
2022-08-26T09:53:25.334Z,101550.31
2022-08-26T09:56:17.165Z,101544.06
2022-08-26T09:58:49.286Z,101543.94
2022-08-26T10:01:31.330Z,101551.25
2022-08-26T10:04:12.235Z,101549.19
2022-08-26T10:07:09.549Z,101545.88
2022-08-26T10:09:39.821Z,101546.66
2022-08-26T10:12:20.656Z,101553.25
2022-08-26T10:14:47.643Z,101540.56
2022-08-26T10:18:09.576Z,101543.44
2022-08-26T10:20:49.356Z,101549.78
2022-08-26T10:23:20.496Z,101542.50
2022-08-26T10:26:04.743Z,101545.28
2022-08-26T10:28:40.599Z,101539.63
2022-08-26T10:31:27.577Z,101536.38
2022-08-26T10:33:58.826Z,101538.56
2022-08-26T10:37:10.837Z,101546.34
2022-08-26T10:40:02.379Z,101544.59
2022-08-26T10:42:44.676Z,101549.63
2022-08-26T10:45:17.105Z,101544.56
2022-08-26T10:47:52.653Z,101540.72
2022-08-26T10:50:29.559Z,101540.81
2022-08-26T10:53:08.735Z,101533.88
2022-08-26T10:55:48.478Z,101546.81
2022-08-26T10:58:44.555Z,101538.97
2022-08-26T11:01:47.159Z,101544.06
2022-08-26T11:04:46.925Z,101540.81
2022-08-26T11:07:36.302Z,101546.03
2022-08-26T11:10:10.137Z,101540.50
2022-08-26T11:12:37.203Z,101545.22
2022-08-26T11:15:10.284Z,101541.09
2022-08-26T11:17:45.791Z,101550.41
2022-08-26T11:20:33.332Z,101545.00
2022-08-26T11:23:13.539Z,101542.72
2022-08-26T11:26:01.501Z,101537.50
2022-08-26T11:28:49.213Z,101530.91
2022-08-26T11:31:19.285Z,101530.66
2022-08-26T11:34:00.722Z,101531.56
2022-08-26T11:36:45.489Z,101538.13
2022-08-26T11:39:28.557Z,101520.16
2022-08-26T11:42:00.026Z,101532.53
2022-08-26T11:44:39.825Z,101528.22
2022-08-26T11:47:11.696Z,101535.28
2022-08-26T11:49:39.607Z,101540.53
2022-08-26T11:52:16.451Z,101538.44
2022-08-26T11:55:23.451Z,101535.69
2022-08-26T11:57:55.821Z,101527.28
2022-08-26T12:00:31.433Z,101529.00
2022-08-26T12:03:06.330Z,101523.81
2022-08-26T12:05:46.807Z,101543.09
2022-08-26T12:08:21.714Z,101539.75
2022-08-26T12:10:51.806Z,101538.00
2022-08-26T12:13:26.455Z,101540.84
2022-08-26T12:15:59.178Z,101537.44
2022-08-26T12:18:33.067Z,101533.44
2022-08-26T12:21:10.460Z,101527.09
2022-08-26T12:24:06.746Z,101530.50
2022-08-26T12:26:36.758Z,101518.66
2022-08-26T12:29:20.017Z,101523.72
2022-08-26T12:32:14.432Z,101537.88
2022-08-26T12:34:42.630Z,101543.66
2022-08-26T12:37:12.969Z,101550.81
2022-08-26T12:39:43.057Z,101546.34
2022-08-26T12:42:12.903Z,101542.63
2022-08-26T12:45:06.531Z,101542.63
2022-08-26T12:47:43.970Z,101554.59
2022-08-26T12:50:21.393Z,101549.56
2022-08-26T12:53:00.681Z,101554.19
2022-08-26T12:55:42.510Z,101542.13
2022-08-26T12:58:15.290Z,101546.22
2022-08-26T13:00:45.033Z,101544.72
2022-08-26T13:03:33.763Z,101536.88
2022-08-26T13:07:04.141Z,101538.28
2022-08-26T13:09:31.419Z,101535.78
2022-08-26T13:11:59.368Z,101534.28
2022-08-26T13:14:29.058Z,101546.97
2022-08-26T13:16:55.705Z,101548.13
2022-08-26T13:19:25.554Z,101546.59
2022-08-26T13:21:55.461Z,101534.16
2022-08-26T13:24:22.265Z,101540.84
2022-08-26T13:26:50.341Z,101532.16
2022-08-26T13:29:18.560Z,101537.25
2022-08-26T13:31:46.253Z,101531.72
2022-08-26T13:34:20.517Z,101524.81
2022-08-26T13:36:49.739Z,101527.50
2022-08-26T13:39:17.525Z,101533.63
2022-08-26T13:41:44.459Z,101532.34
2022-08-26T13:44:13.649Z,101527.03
2022-08-26T13:46:40.858Z,101531.88
2022-08-26T13:49:07.877Z,101533.63
2022-08-26T13:51:35.197Z,101533.16
2022-08-26T13:54:01.898Z,101520.94
2022-08-26T13:56:29.931Z,101518.84
2022-08-26T13:58:58.077Z,101527.03
2022-08-26T14:01:25.295Z,101522.84
2022-08-26T14:03:53.148Z,101523.59
2022-08-26T14:06:27.687Z,101528.63
2022-08-26T14:08:54.855Z,101523.06
2022-08-26T14:11:22.463Z,101525.47
2022-08-26T14:13:50.305Z,101512.19
2022-08-26T14:16:29.103Z,101518.09
2022-08-26T14:19:05.883Z,101507.94
2022-08-26T14:21:38.578Z,101506.88
2022-08-26T14:24:06.551Z,101519.38
2022-08-26T14:26:33.454Z,101520.41
2022-08-26T14:29:03.962Z,101518.91
2022-08-26T14:31:34.912Z,101518.59
2022-08-26T14:34:07.044Z,101507.13
2022-08-26T14:36:35.279Z,101512.81
2022-08-26T14:39:09.590Z,101513.16
2022-08-26T14:41:42.798Z,101482.88
2022-08-26T14:44:14.031Z,101501.16
2022-08-26T14:46:47.286Z,101501.16
2022-08-26T14:49:14.688Z,101491.38
2022-08-26T14:51:42.726Z,101477.13
2022-08-26T14:54:19.092Z,101476.09
2022-08-26T14:57:01.957Z,101473.38
2022-08-26T14:59:49.615Z,101481.41
2022-08-26T15:02:33.232Z,101482.91
2022-08-26T15:05:04.150Z,101487.19
2022-08-26T15:07:31.390Z,101486.50
2022-08-26T15:10:00.302Z,101489.06
2022-08-26T15:12:27.868Z,101485.94
2022-08-26T15:14:55.008Z,101498.72
2022-08-26T15:17:21.928Z,101491.69
2022-08-26T15:19:49.050Z,101493.19
2022-08-26T15:22:22.193Z,101490.75
2022-08-26T15:24:56.316Z,101493.84
2022-08-26T15:27:23.897Z,101494.72
2022-08-26T15:29:51.729Z,101497.59
2022-08-26T15:32:19.007Z,101499.28
2022-08-26T15:34:46.380Z,101514.22
2022-08-26T15:37:13.307Z,101488.44
2022-08-26T15:39:49.675Z,101477.81
2022-08-26T15:42:23.778Z,101498.94
2022-08-26T15:44:52.779Z,101496.31
2022-08-26T15:47:19.969Z,101483.03
2022-08-26T15:49:56.811Z,101488.94
2022-08-26T15:52:26.815Z,101494.00
2022-08-26T15:54:55.761Z,101489.28
2022-08-26T15:57:25.700Z,101489.16
2022-08-26T15:59:56.677Z,101490.88
2022-08-26T16:02:30.418Z,101479.44
2022-08-26T16:05:00.130Z,101490.75
2022-08-26T16:07:27.107Z,101479.78
2022-08-26T16:09:56.989Z,101479.44
2022-08-26T16:12:23.715Z,101485.44
2022-08-26T16:14:56.299Z,101482.47
2022-08-26T16:17:28.975Z,101475.19
2022-08-26T16:19:56.426Z,101474.41
2022-08-26T16:22:23.442Z,101481.31
2022-08-26T16:24:50.519Z,101469.19
2022-08-26T16:27:23.157Z,101475.31
2022-08-26T16:29:50.119Z,101470.69
2022-08-26T16:32:16.876Z,101485.47
2022-08-26T16:34:47.135Z,101476.09
2022-08-26T16:37:23.827Z,101481.50
2022-08-26T16:39:53.784Z,101481.19
2022-08-26T16:42:20.606Z,101476.66
2022-08-26T16:44:49.936Z,101465.94
2022-08-26T16:47:21.475Z,101472.16
2022-08-26T16:49:49.388Z,101475.16
2022-08-26T16:52:16.319Z,101481.28
2022-08-26T16:54:43.731Z,101482.88
2022-08-26T16:57:14.587Z,101474.25
2022-08-26T16:59:41.884Z,101479.19
2022-08-26T17:02:10.584Z,101472.72
2022-08-26T17:04:41.058Z,101477.56
2022-08-26T17:07:12.896Z,101482.69
2022-08-26T17:09:45.864Z,101484.16
2022-08-26T17:12:19.158Z,101477.56
2022-08-26T17:14:46.036Z,101474.69
2022-08-26T17:17:12.975Z,101472.78
2022-08-26T17:19:47.015Z,101482.41
2022-08-26T17:22:15.451Z,101496.31
2022-08-26T17:24:43.651Z,101489.50
2022-08-26T17:27:10.766Z,101482.28
2022-08-26T17:29:37.509Z,101495.88
2022-08-26T17:32:04.762Z,101483.69
2022-08-26T17:34:43.395Z,101483.25
2022-08-26T17:37:10.638Z,101481.84
2022-08-26T17:39:42.514Z,101484.22
2022-08-26T17:42:11.913Z,101476.22
2022-08-26T17:44:38.873Z,101493.22
2022-08-26T17:47:07.268Z,101497.91
2022-08-26T17:49:34.772Z,101496.66
2022-08-26T17:52:02.070Z,101499.53
2022-08-26T17:54:30.186Z,101501.47
2022-08-26T17:56:59.108Z,101503.16
2022-08-26T17:59:31.407Z,101501.91
2022-08-26T18:02:02.418Z,101492.06
2022-08-26T18:04:29.213Z,101504.13
2022-08-26T18:06:58.590Z,101506.72
2022-08-26T18:09:25.537Z,101490.47
2022-08-26T18:11:52.772Z,101497.59
2022-08-26T18:14:19.818Z,101505.59
2022-08-26T18:16:49.405Z,101505.41
2022-08-26T18:19:16.912Z,101512.38
2022-08-26T18:21:44.135Z,101504.81
2022-08-26T18:24:13.981Z,101512.47
2022-08-26T18:26:48.820Z,101500.13
2022-08-26T18:29:18.475Z,101513.94
2022-08-26T18:32:02.989Z,101514.97
2022-08-26T18:34:31.637Z,101517.28
2022-08-26T18:37:00.279Z,101511.59
2022-08-26T18:39:27.349Z,101505.69
2022-08-26T18:41:54.314Z,101513.22
2022-08-26T18:44:23.331Z,101504.38
2022-08-26T18:46:53.224Z,101526.88
2022-08-26T18:49:24.517Z,101514.47
2022-08-26T18:51:52.410Z,101524.53
2022-08-26T18:56:47.595Z,101527.94
2022-08-26T18:59:14.766Z,101521.28
2022-08-26T19:01:42.775Z,101532.69
2022-08-26T19:04:14.107Z,101530.38
2022-08-26T19:06:43.410Z,101529.16
2022-08-26T19:09:12.109Z,101543.94
2022-08-26T19:11:42.912Z,101542.53
2022-08-26T19:14:13.701Z,101547.63
2022-08-26T19:16:43.180Z,101533.81
2022-08-26T19:19:10.944Z,101543.78
2022-08-26T19:21:39.085Z,101536.91
2022-08-26T19:24:09.422Z,101549.16
2022-08-26T19:26:36.731Z,101534.84
2022-08-26T19:29:03.941Z,101550.34
2022-08-26T19:31:31.234Z,101552.88
2022-08-26T19:33:59.124Z,101557.00
2022-08-26T19:36:27.561Z,101565.00
2022-08-26T19:38:56.751Z,101554.47
2022-08-26T19:41:37.560Z,101558.00
2022-08-26T19:44:34.718Z,101559.03
2022-08-26T19:47:03.643Z,101563.81
2022-08-26T19:49:30.862Z,101561.63
2022-08-26T19:51:58.147Z,101571.41
2022-08-26T19:54:25.502Z,101566.03
2022-08-26T19:56:52.204Z,101574.31
2022-08-26T19:59:19.147Z,101577.56
2022-08-26T20:01:46.453Z,101577.81
2022-08-26T20:04:27.657Z,101572.84
2022-08-26T20:06:57.819Z,101572.47
2022-08-26T20:09:30.781Z,101580.66
2022-08-26T20:11:57.826Z,101581.16
2022-08-26T20:14:28.785Z,101580.19
2022-08-26T20:16:55.825Z,101565.38
2022-08-26T20:19:42.846Z,101579.97
2022-08-26T20:22:10.404Z,101573.03
2022-08-26T20:24:37.545Z,101577.94
2022-08-26T20:27:07.811Z,101586.00
2022-08-26T20:29:36.295Z,101574.47
2022-08-26T20:32:03.581Z,101572.06
2022-08-26T20:34:34.113Z,101577.94
2022-08-26T20:37:00.914Z,101574.72
2022-08-26T20:39:29.615Z,101570.31
2022-08-26T20:41:57.844Z,101578.00
2022-08-26T20:44:25.316Z,101575.63
2022-08-26T20:46:52.067Z,101580.50
2022-08-26T20:49:18.997Z,101576.88
2022-08-26T20:51:48.114Z,101574.50
2022-08-26T20:54:15.444Z,101574.50
2022-08-26T20:56:42.565Z,101577.16
2022-08-26T20:59:09.695Z,101574.53
2022-08-26T21:01:41.924Z,101583.50
2022-08-26T21:04:18.956Z,101581.28
2022-08-26T21:06:49.884Z,101572.75
2022-08-26T21:09:19.287Z,101575.81
2022-08-26T21:11:46.097Z,101596.09
2022-08-26T21:14:16.147Z,101575.91
2022-08-26T21:16:47.959Z,101580.84
2022-08-26T21:19:18.229Z,101571.53
2022-08-26T21:21:49.579Z,101571.16
2022-08-26T21:24:17.175Z,101578.88
2022-08-26T21:26:44.585Z,101568.31
2022-08-26T21:29:13.559Z,101576.00
2022-08-26T21:31:45.784Z,101586.56
2022-08-26T21:34:18.448Z,101586.16
2022-08-26T21:36:49.686Z,101582.91
2022-08-26T21:39:17.200Z,101584.13
2022-08-26T21:41:45.811Z,101582.09
2022-08-26T21:44:17.103Z,101580.03
2022-08-26T21:46:45.812Z,101573.94
2022-08-26T21:49:15.771Z,101573.50
2022-08-26T21:51:45.833Z,101587.31
2022-08-26T21:54:14.153Z,101583.63
2022-08-26T21:56:45.264Z,101588.69
2022-08-26T21:59:17.241Z,101576.91
2022-08-26T22:01:44.658Z,101595.13
2022-08-26T22:04:12.059Z,101583.09
2022-08-26T22:06:43.333Z,101579.22
2022-08-26T22:09:11.584Z,101596.44
2022-08-26T22:11:38.637Z,101596.16
2022-08-26T22:14:06.733Z,101576.94
2022-08-26T22:16:33.862Z,101587.63
2022-08-26T22:19:00.984Z,101590.22
2022-08-26T22:21:28.519Z,101585.38
2022-08-26T22:23:58.288Z,101604.09
2022-08-26T22:26:29.818Z,101601.88
2022-08-26T22:28:59.097Z,101601.97
2022-08-26T22:31:37.283Z,101588.94
2022-08-26T22:34:10.624Z,101597.63
2022-08-26T22:36:43.111Z,101601.38
2022-08-26T22:39:13.596Z,101604.09
2022-08-26T22:41:43.012Z,101606.88
2022-08-26T22:44:11.677Z,101609.28
2022-08-26T22:46:39.723Z,101603.44
2022-08-26T22:49:09.597Z,101606.63
2022-08-26T22:51:37.309Z,101606.00
2022-08-26T22:54:04.815Z,101595.66
2022-08-26T22:56:31.974Z,101599.47
2022-08-26T22:58:58.844Z,101597.59
2022-08-26T23:01:25.947Z,101594.41
2022-08-26T23:03:55.551Z,101604.56
2022-08-26T23:06:24.703Z,101587.72
2022-08-26T23:08:52.192Z,101602.06
2022-08-26T23:11:19.305Z,101589.16
2022-08-26T23:13:45.980Z,101595.13
2022-08-26T23:16:13.649Z,101589.13
2022-08-26T23:18:44.018Z,101588.88
2022-08-26T23:21:10.750Z,101590.97
2022-08-26T23:23:38.450Z,101586.06
2022-08-26T23:26:06.972Z,101584.06
2022-08-26T23:28:36.072Z,101584.25
2022-08-26T23:31:03.132Z,101588.69
2022-08-26T23:33:49.802Z,101585.91
2022-08-26T23:36:22.775Z,101584.41
2022-08-26T23:38:52.751Z,101582.03
2022-08-26T23:41:22.664Z,101591.75
2022-08-26T23:43:49.571Z,101592.53
2022-08-26T23:46:16.266Z,101579.50
2022-08-26T23:48:43.301Z,101584.28
2022-08-26T23:51:29.808Z,101581.94
2022-08-26T23:53:57.518Z,101580.53
2022-08-26T23:56:24.725Z,101581.78
2022-08-26T23:58:54.449Z,101587.13
